Time;durP1;ratioP1;P1;durP2;ratioP2;P2;SDS_P1;SDS_P2;PMS_P1;PMS_P2;Temp;Humidity;BMP_temperature;BMP_pressure;BME280_temperature;BME280_humidity;BME280_pressure;Samples;Min_cycle;Max_cycle;Signal;HPM_P1;HPM_P2
2022/11/11 00:02:20;;;;;;;;;;;;;;;20.49;28.96;98911.69;5074579;28;960;-73
2022/11/11 00:05:04;;;;;;;;;;;;;;;20.52;28.79;98913.69;5074639;28;993;-73
2022/11/11 00:07:48;;;;;;;;;;;;;;;20.98;28.05;98918.13;5059678;28;1473;-74
2022/11/11 00:10:32;;;;;;;;;;;;;;;20.96;28.02;98912.09;5060367;28;981;-73
2022/11/11 00:13:16;;;;;;;;;;;;;;;20.73;28.15;98912.72;5060223;28;1030;-73
2022/11/11 00:16:06;;;;;;;;;;;;;;;20.60;28.76;98915.25;5074505;28;935;-73
2022/11/11 00:25:05;;;;;;;;;;;;;;;20.74;28.43;98901.00;5074235;28;1006;-73
2022/11/11 00:27:49;;;;;;;;;;;;;;;20.73;28.18;98907.06;5073339;28;1580;-74
2022/11/11 00:30:33;;;;;;;;;;;;;;;20.55;28.89;98902.34;5054989;28;945;-73
2022/11/11 00:33:17;;;;;;;;;;;;;;;20.53;28.80;98898.34;5056733;28;865;-73
2022/11/11 00:36:01;;;;;;;;;;;;;;;20.97;27.92;98908.84;5056376;28;1170;-73
2022/11/11 00:38:45;;;;;;;;;;;;;;;20.91;28.22;98901.25;5055163;28;1926;-73
2022/11/11 00:41:29;;;;;;;;;;;;;;;20.81;28.27;98891.63;5056215;28;927;-73
2022/11/11 00:44:13;;;;;;;;;;;;;;;20.49;28.54;98903.22;5056129;28;852;-73
2022/11/11 00:53:02;;;;;;;;;;;;;;;20.99;27.95;98897.94;5055043;28;890;-73
2022/11/11 00:55:46;;;;;;;;;;;;;;;21.33;27.34;98903.66;5056065;28;931;-73
2022/11/11 00:58:30;;;;;;;;;;;;;;;20.78;28.15;98895.31;5053924;28;1905;-73
2022/11/11 01:01:14;;;;;;;;;;;;;;;20.38;28.75;98896.81;5054643;28;1492;-73
2022/11/11 01:03:58;;;;;;;;;;;;;;;20.93;28.14;98887.47;5055831;28;916;-73
2022/11/11 01:06:42;;;;;;;;;;;;;;;20.96;28.09;98898.75;5054452;28;1424;-73
2022/11/11 01:09:26;;;;;;;;;;;;;;;20.96;27.97;98897.97;5055595;28;895;-73
2022/11/11 01:12:10;;;;;;;;;;;;;;;20.59;28.35;98890.22;5055618;28;852;-73
2022/11/11 01:14:54;;;;;;;;;;;;;;;20.42;28.70;98898.41;5054610;28;1485;-73
2022/11/11 01:17:38;;;;;;;;;;;;;;;20.83;28.11;98888.38;5055498;28;1967;-73
2022/11/11 01:20:22;;;;;;;;;;;;;;;20.95;27.73;98890.69;5055810;28;836;-73
2022/11/11 01:23:06;;;;;;;;;;;;;;;21.12;27.50;98895.38;5055412;28;976;-73
2022/11/11 01:25:51;;;;;;;;;;;;;;;20.66;28.30;98885.28;5054245;28;1596;-73
2022/11/11 01:28:35;;;;;;;;;;;;;;;20.44;28.59;98883.84;5055340;28;986;-73
2022/11/11 01:31:20;;;;;;;;;;;;;;;20.48;28.32;98884.66;5054346;28;952;-73
2022/11/11 01:34:04;;;;;;;;;;;;;;;20.72;28.35;98889.28;5055540;28;1069;-73
2022/11/11 01:36:47;;;;;;;;;;;;;;;21.00;27.87;98887.41;5054763;28;1353;-73
2022/11/11 01:39:31;;;;;;;;;;;;;;;20.91;28.03;98884.28;5053084;28;1461;-73
2022/11/11 01:42:15;;;;;;;;;;;;;;;20.53;28.51;98876.53;5054364;28;1541;-74
2022/11/11 01:44:59;;;;;;;;;;;;;;;20.25;28.86;98883.16;5035134;28;900;-73
2022/11/11 01:50:46;;;;;;;;;;;;;;;21.00;27.77;98881.75;5045881;28;1548;-73
2022/11/11 01:53:30;;;;;;;;;;;;;;;20.97;27.54;98876.94;5054858;28;1591;-73
2022/11/11 01:56:14;;;;;;;;;;;;;;;20.86;28.11;98885.53;5055045;28;967;-73
2022/11/11 01:59:00;;;;;;;;;;;;;;;20.47;28.28;98883.06;5054108;28;1902;-73
2022/11/11 02:01:45;;;;;;;;;;;;;;;20.64;28.40;98870.78;5032815;28;1462;-74
2022/11/11 02:07:32;;;;;;;;;;;;;;;20.92;27.87;98888.69;5035042;28;960;-73
2022/11/11 02:10:20;;;;;;;;;;;;;;;20.46;28.52;98887.03;5058740;28;1379;-73
2022/11/11 02:16:08;;;;;;;;;;;;;;;20.52;28.54;98874.09;5072624;28;1061;-73
2022/11/11 02:18:51;;;;;;;;;;;;;;;20.79;27.87;98880.75;5072357;28;1906;-73
2022/11/11 02:21:36;;;;;;;;;;;;;;;20.79;28.05;98882.78;5057841;28;1529;-72
2022/11/11 02:24:20;;;;;;;;;;;;;;;20.84;27.73;98878.69;5058181;28;942;-73
2022/11/11 02:27:04;;;;;;;;;;;;;;;20.59;28.29;98878.91;5072403;28;923;-73
2022/11/11 02:29:48;;;;;;;;;;;;;;;20.63;28.27;98880.50;5057454;28;1596;-73
2022/11/11 02:32:32;;;;;;;;;;;;;;;20.91;27.60;98881.44;5072312;28;1012;-73
2022/11/11 02:35:17;;;;;;;;;;;;;;;21.29;27.01;98885.88;5072229;28;1099;-73
2022/11/11 02:38:07;;;;;;;;;;;;;;;20.80;27.66;98879.50;5044147;28;1906;-73
2022/11/11 02:43:54;;;;;;;;;;;;;;;20.64;28.38;98876.44;5053627;28;891;-74
2022/11/11 02:46:38;;;;;;;;;;;;;;;20.84;27.84;98879.50;5054680;28;898;-73
2022/11/11 02:49:22;;;;;;;;;;;;;;;21.13;27.29;98879.97;5053453;28;886;-73
2022/11/11 02:52:06;;;;;;;;;;;;;;;20.63;27.94;98880.50;5054446;28;837;-73
2022/11/11 02:54:50;;;;;;;;;;;;;;;20.26;28.55;98867.84;5039497;28;881;-73
2022/11/11 02:57:34;;;;;;;;;;;;;;;20.47;28.58;98880.22;5054243;28;1902;-73
2022/11/11 03:00:17;;;;;;;;;;;;;;;20.94;27.84;98877.78;5051815;28;1461;-73
2022/11/11 03:03:01;;;;;;;;;;;;;;;20.97;27.48;98872.06;5052845;28;1489;-73
2022/11/11 03:05:45;;;;;;;;;;;;;;;20.83;27.79;98877.06;5054313;28;902;-73
2022/11/11 03:08:29;;;;;;;;;;;;;;;20.58;27.90;98872.47;5054692;28;891;-73
2022/11/11 03:11:13;;;;;;;;;;;;;;;20.54;28.45;98869.66;5051823;28;1537;-73
2022/11/11 03:13:57;;;;;;;;;;;;;;;20.94;27.68;98872.94;5069260;28;920;-73
2022/11/11 03:19:44;;;;;;;;;;;;;;;20.80;27.87;98873.84;5057770;28;885;-73
2022/11/11 03:22:28;;;;;;;;;;;;;;;20.47;28.31;98871.75;5037734;28;949;-73
2022/11/11 03:28:19;;;;;;;;;;;;;;;20.88;27.82;98882.25;5037633;28;908;-73
2022/11/11 03:31:03;;;;;;;;;;;;;;;20.91;27.87;98878.59;5050667;28;1477;-73
2022/11/11 03:33:46;;;;;;;;;;;;;;;20.58;28.01;98877.31;5056456;28;856;-73
2022/11/11 03:38:14;;;;;;;;;;;;;;;20.57;28.29;98876.47;5057356;28;1064;-73
2022/11/11 03:39:34;;;;;;;;;;;;;;;20.40;28.28;98877.41;5056442;28;1538;-73
2022/11/11 03:42:19;;;;;;;;;;;;;;;20.79;27.93;98877.13;5057453;28;976;-73
2022/11/11 03:45:03;;;;;;;;;;;;;;;21.09;27.61;98876.41;5056287;28;992;-73
2022/11/11 03:47:46;;;;;;;;;;;;;;;21.10;27.73;98875.19;5037385;28;951;-73
2022/11/11 03:50:30;;;;;;;;;;;;;;;20.56;28.44;98886.19;5072956;28;1340;-73
2022/11/11 03:53:14;;;;;;;;;;;;;;;20.60;28.42;98891.81;5055996;28;1003;-73
2022/11/11 03:55:59;;;;;;;;;;;;;;;20.76;28.15;98884.41;5057075;28;883;-73
2022/11/11 03:58:43;;;;;;;;;;;;;;;20.70;28.13;98880.41;5055948;28;1909;-73
2022/11/11 04:10:35;;;;;;;;;;;;;;;20.34;28.60;98885.53;5055320;28;1484;-73
2022/11/11 04:16:22;;;;;;;;;;;;;;;20.85;28.13;98885.94;5056836;28;908;-73
2022/11/11 04:22:09;;;;;;;;;;;;;;;21.10;27.82;98883.69;5056637;28;950;-73
2022/11/11 04:30:59;;;;;;;;;;;;;;;20.74;28.14;98881.19;5054104;28;1844;-73
2022/11/11 04:33:43;;;;;;;;;;;;;;;20.74;28.08;98881.19;5056345;28;952;-73
2022/11/11 04:36:27;;;;;;;;;;;;;;;21.09;27.83;98896.22;5056496;28;1058;-73
2022/11/11 04:42:13;;;;;;;;;;;;;;;20.52;28.74;98891.06;5055350;28;910;-73
2022/11/11 04:48:01;;;;;;;;;;;;;;;20.80;28.12;98890.81;5055955;28;897;-73
2022/11/11 04:50:45;;;;;;;;;;;;;;;21.06;28.06;98902.72;5054570;28;1543;-73
2022/11/11 04:53:29;;;;;;;;;;;;;;;20.59;28.43;98899.50;5053754;28;1805;-73
2022/11/11 04:59:16;;;;;;;;;;;;;;;20.34;29.23;98901.69;5055918;28;1898;-73
2022/11/11 05:05:03;;;;;;;;;;;;;;;21.27;27.91;98913.81;5073408;28;1301;-73
2022/11/11 05:10:50;;;;;;;;;;;;;;;20.75;28.49;98915.94;5073214;28;1064;-73
2022/11/11 05:22:44;;;;;;;;;;;;;;;20.71;28.44;98932.91;5073158;28;914;-73
2022/11/11 05:25:31;;;;;;;;;;;;;;;20.61;28.83;98945.13;5058775;28;999;-73
2022/11/11 05:28:15;;;;;;;;;;;;;;;20.43;29.33;98944.44;5059225;28;914;-72
2022/11/11 05:30:59;;;;;;;;;;;;;;;20.84;28.66;98946.56;5073094;28;875;-73
2022/11/11 05:33:43;;;;;;;;;;;;;;;20.92;28.69;98951.75;5072964;28;834;-73
2022/11/11 05:36:27;;;;;;;;;;;;;;;20.64;28.63;98944.31;5056224;28;1155;-73
2022/11/11 05:39:10;;;;;;;;;;;;;;;20.67;28.98;98949.09;5055282;28;1948;-73
2022/11/11 05:41:54;;;;;;;;;;;;;;;20.29;29.29;98957.44;5055127;28;1033;-73
2022/11/11 05:44:38;;;;;;;;;;;;;;;20.72;28.89;98954.31;5055071;28;832;-73
2022/11/11 05:47:22;;;;;;;;;;;;;;;21.14;28.01;98966.53;5054120;28;898;-73
2022/11/11 05:50:06;;;;;;;;;;;;;;;20.98;28.08;98966.25;5054298;28;647;-73
2022/11/11 05:52:50;;;;;;;;;;;;;;;20.67;28.86;98966.06;5055326;28;840;-73
2022/11/11 05:55:34;;;;;;;;;;;;;;;20.59;29.00;98970.19;5055309;28;900;-73
2022/11/11 05:58:18;;;;;;;;;;;;;;;20.76;28.77;98959.97;5055023;28;1898;-73
2022/11/11 06:01:02;;;;;;;;;;;;;;;20.99;28.15;98968.66;5053884;28;817;-73
2022/11/11 06:03:47;;;;;;;;;;;;;;;20.79;28.53;98968.44;5054092;28;953;-73
2022/11/11 06:06:30;;;;;;;;;;;;;;;20.56;28.90;98973.84;5053975;28;842;-73
2022/11/11 06:09:14;;;;;;;;;;;;;;;20.56;28.78;98971.00;5054808;28;683;-73
2022/11/11 06:11:59;;;;;;;;;;;;;;;20.59;29.29;98981.50;5055218;28;614;-73
2022/11/11 06:14:43;;;;;;;;;;;;;;;21.06;28.11;98984.78;5054961;28;671;-73
2022/11/11 06:17:27;;;;;;;;;;;;;;;21.19;27.87;98985.88;5053740;28;1965;-73
2022/11/11 06:20:11;;;;;;;;;;;;;;;20.67;28.69;98988.69;5055206;28;648;-73
2022/11/11 06:22:55;;;;;;;;;;;;;;;20.43;29.26;99001.78;5054891;28;638;-73
2022/11/11 06:28:45;;;;;;;;;;;;;;;20.99;28.45;98999.78;5054700;28;872;-73
2022/11/11 06:31:29;;;;;;;;;;;;;;;21.01;28.56;99002.19;5053611;28;693;-73
2022/11/11 06:34:14;;;;;;;;;;;;;;;20.57;28.74;99015.03;5054650;28;755;-73
2022/11/11 06:36:58;;;;;;;;;;;;;;;20.48;28.97;99009.03;5054608;28;1247;-73
2022/11/11 06:39:42;;;;;;;;;;;;;;;20.67;29.00;98994.34;5054630;28;920;-73
2022/11/11 06:42:26;;;;;;;;;;;;;;;20.69;28.81;98993.97;5054631;28;921;-73
2022/11/11 06:45:10;;;;;;;;;;;;;;;20.88;28.86;98998.25;5054544;28;1003;-73
2022/11/11 06:47:54;;;;;;;;;;;;;;;20.67;29.02;98991.53;5056167;28;865;-73
2022/11/11 06:50:38;;;;;;;;;;;;;;;20.71;28.81;99003.63;5057392;28;961;-73
2022/11/11 06:53:22;;;;;;;;;;;;;;;20.59;29.00;98997.66;5058354;28;949;-73
2022/11/11 06:56:06;;;;;;;;;;;;;;;20.89;28.68;98994.22;5058357;28;911;-74
2022/11/11 06:58:50;;;;;;;;;;;;;;;20.91;28.62;98998.22;5056309;28;1985;-73
2022/11/11 07:01:34;;;;;;;;;;;;;;;20.92;28.70;99010.34;5058100;28;942;-73
2022/11/11 07:04:18;;;;;;;;;;;;;;;20.50;29.22;99006.59;5058174;28;944;-73
2022/11/11 07:07:02;;;;;;;;;;;;;;;20.45;29.38;99009.84;5056351;28;999;-73
2022/11/11 07:09:46;;;;;;;;;;;;;;;20.75;29.02;99006.44;5058138;28;815;-73
2022/11/11 07:12:29;;;;;;;;;;;;;;;20.86;28.75;99000.69;5056962;28;985;-73
2022/11/11 07:15:14;;;;;;;;;;;;;;;20.90;28.73;99004.31;5057966;28;874;-73
2022/11/11 07:17:58;;;;;;;;;;;;;;;20.56;29.26;99013.44;5057791;28;1984;-73
2022/11/11 07:20:42;;;;;;;;;;;;;;;20.46;29.40;99006.63;5057841;28;930;-73
2022/11/11 07:23:26;;;;;;;;;;;;;;;20.36;29.80;99009.47;5057735;28;998;-73
2022/11/11 07:26:09;;;;;;;;;;;;;;;20.72;29.19;99008.06;5056801;28;938;-74
2022/11/11 07:28:54;;;;;;;;;;;;;;;21.13;28.68;99015.81;5057700;28;898;-73
2022/11/11 07:31:38;;;;;;;;;;;;;;;20.95;28.57;99021.66;5057635;28;979;-73
2022/11/11 07:34:22;;;;;;;;;;;;;;;20.94;28.78;99013.59;5056575;28;1078;-73
2022/11/11 07:37:06;;;;;;;;;;;;;;;20.55;29.44;99015.44;5057947;28;1077;-73
2022/11/11 07:39:50;;;;;;;;;;;;;;;21.26;28.42;99014.09;5057350;28;761;-73
2022/11/11 07:42:35;;;;;;;;;;;;;;;20.68;29.56;99012.97;5057298;28;858;-73
2022/11/11 07:45:19;;;;;;;;;;;;;;;20.96;28.91;99013.97;5056234;28;916;-73
2022/11/11 07:48:03;;;;;;;;;;;;;;;20.45;29.68;99009.84;5057255;28;944;-73
2022/11/11 07:50:47;;;;;;;;;;;;;;;20.58;29.79;99018.69;5057227;28;903;-73
2022/11/11 07:53:31;;;;;;;;;;;;;;;20.39;30.01;99005.84;5056169;28;795;-73
2022/11/11 07:56:15;;;;;;;;;;;;;;;20.80;29.43;99011.66;5041334;28;915;-73
2022/11/11 07:58:59;;;;;;;;;;;;;;;21.02;29.21;99003.78;5055186;28;1905;-73
2022/11/11 08:01:43;;;;;;;;;;;;;;;20.64;29.45;99000.84;5055999;28;683;-73
2022/11/11 08:04:27;;;;;;;;;;;;;;;20.68;29.80;99001.66;5056066;28;673;-73
2022/11/11 08:07:11;;;;;;;;;;;;;;;20.51;29.76;99011.84;5055986;28;1064;-73
2022/11/11 08:09:55;;;;;;;;;;;;;;;20.92;29.55;99016.00;5056861;28;837;-73
2022/11/11 08:15:42;;;;;;;;;;;;;;;20.68;29.54;99029.94;5056779;28;889;-73
2022/11/11 08:18:26;;;;;;;;;;;;;;;20.45;30.11;99026.78;5056672;28;1964;-73
2022/11/11 08:21:09;;;;;;;;;;;;;;;20.56;29.87;99033.22;5056722;28;940;-73
2022/11/11 08:23:53;;;;;;;;;;;;;;;20.76;29.50;99031.47;5056636;28;926;-73
2022/11/11 08:26:37;;;;;;;;;;;;;;;21.12;28.98;99031.19;5055649;28;1084;-73
2022/11/11 08:29:21;;;;;;;;;;;;;;;20.73;29.03;99026.66;5055518;28;869;-73
2022/11/11 08:32:05;;;;;;;;;;;;;;;20.79;29.04;99041.97;5056483;28;932;-73
2022/11/11 08:34:49;;;;;;;;;;;;;;;20.62;29.51;99042.88;5055259;28;1059;-73
2022/11/11 08:37:33;;;;;;;;;;;;;;;20.88;29.45;99049.16;5056196;28;1963;-73
2022/11/11 08:40:17;;;;;;;;;;;;;;;20.86;29.27;99041.09;5056396;28;970;-73
2022/11/11 08:43:01;;;;;;;;;;;;;;;20.94;29.38;99058.84;5056292;28;991;-73
2022/11/11 08:45:45;;;;;;;;;;;;;;;20.65;29.50;99050.53;5056118;28;921;-73
2022/11/11 08:48:30;;;;;;;;;;;;;;;20.57;29.64;99062.28;5055178;28;981;-73
2022/11/11 08:51:14;;;;;;;;;;;;;;;20.44;30.14;99059.13;5056132;28;833;-73
2022/11/11 08:53:57;;;;;;;;;;;;;;;20.86;29.67;99045.97;5055099;28;947;-73
2022/11/11 08:56:42;;;;;;;;;;;;;;;21.22;28.79;99050.13;5055065;28;959;-73
2022/11/11 08:59:26;;;;;;;;;;;;;;;20.86;29.51;99057.28;5055092;28;1902;-73
2022/11/11 09:02:13;;;;;;;;;;;;;;;20.54;29.97;99052.63;5056186;28;873;-73
2022/11/11 09:04:57;;;;;;;;;;;;;;;20.28;30.58;99046.25;5073375;28;948;-73
2022/11/11 09:07:40;;;;;;;;;;;;;;;20.35;30.48;99044.63;5059114;28;1065;-73
2022/11/11 09:10:25;;;;;;;;;;;;;;;20.86;29.70;99045.97;5073342;28;913;-73
2022/11/11 09:13:08;;;;;;;;;;;;;;;20.94;29.77;99041.88;5073275;28;923;-73
2022/11/11 09:15:53;;;;;;;;;;;;;;;20.54;30.01;99035.66;5073391;28;958;-73
2022/11/11 09:18:37;;;;;;;;;;;;;;;20.64;30.41;99039.66;5059229;28;1997;-73
2022/11/11 09:21:22;;;;;;;;;;;;;;;20.58;30.39;99035.66;5073261;28;968;-73
2022/11/11 09:24:06;;;;;;;;;;;;;;;20.98;29.95;99036.97;5073313;28;951;-71
2022/11/11 09:26:51;;;;;;;;;;;;;;;20.96;29.83;99033.75;5073188;28;951;-71
2022/11/11 09:29:34;;;;;;;;;;;;;;;20.91;29.80;99032.19;5072971;28;1028;-71
2022/11/11 09:32:18;;;;;;;;;;;;;;;20.64;30.13;99029.13;5073097;28;981;-71
2022/11/11 09:35:02;;;;;;;;;;;;;;;20.71;30.10;99029.09;5068585;28;1161;-71
2022/11/11 09:37:54;;;;;;;;;;;;;;;20.61;30.28;99024.31;5054129;28;1875;-71
2022/11/11 09:40:42;;;;;;;;;;;;;;;20.80;29.94;99026.59;5054267;28;948;-71
2022/11/11 09:43:33;;;;;;;;;;;;;;;21.10;29.34;99021.53;5054611;28;1516;-71
2022/11/11 09:46:20;;;;;;;;;;;;;;;20.64;29.80;99029.13;5055410;28;954;-72
2022/11/11 09:49:07;;;;;;;;;;;;;;;20.50;30.50;99017.91;5055501;28;993;-72
2022/11/11 09:52:11;;;;;;;;;;;;;;;20.60;30.20;99022.69;5055314;28;784;-72
2022/11/11 09:54:56;;;;;;;;;;;;;;;20.58;30.35;99030.78;5055236;28;833;-72
2022/11/11 09:57:41;;;;;;;;;;;;;;;21.05;29.36;99022.78;5054344;28;1950;-72
2022/11/11 10:00:28;;;;;;;;;;;;;;;21.03;29.26;99023.19;5054204;28;925;-72
2022/11/11 10:03:14;;;;;;;;;;;;;;;20.75;29.65;99021.38;5054148;28;924;-73
2022/11/11 10:06:16;;;;;;;;;;;;;;;20.45;30.28;99026.78;5054225;28;1128;-72
2022/11/11 10:09:10;;;;;;;;;;;;;;;20.70;30.10;99030.31;5055153;28;881;-72
2022/11/11 10:12:02;;;;;;;;;;;;;;;21.00;29.36;99018.38;5054076;28;899;-73
2022/11/11 10:14:46;;;;;;;;;;;;;;;21.08;29.15;99036.09;5054484;28;876;-73
2022/11/11 10:17:37;;;;;;;;;;;;;;;20.51;29.91;99040.09;5034222;28;1975;-73
2022/11/11 10:20:25;;;;;;;;;;;;;;;20.56;29.72;99033.22;5033429;28;918;-73
2022/11/11 10:23:11;;;;;;;;;;;;;;;20.73;29.76;99037.97;5037206;28;1058;-72
2022/11/11 10:25:56;;;;;;;;;;;;;;;20.85;29.62;99041.53;5039068;28;873;-73
2022/11/11 10:28:41;;;;;;;;;;;;;;;20.85;29.17;99039.50;5038137;28;930;-72
2022/11/11 10:31:25;;;;;;;;;;;;;;;20.73;29.58;99028.69;5039083;28;858;-72
2022/11/11 10:34:12;;;;;;;;;;;;;;;20.35;29.98;99042.59;5037912;28;985;-73
2022/11/11 10:36:56;;;;;;;;;;;;;;;20.91;29.45;99031.38;5037974;28;1201;-73
2022/11/11 10:40:01;;;;;;;;;;;;;;;20.86;29.41;99037.47;5038036;28;1918;-72
2022/11/11 10:42:44;;;;;;;;;;;;;;;21.11;28.76;99034.47;5023720;28;680;-73
2022/11/11 10:45:44;;;;;;;;;;;;;;;20.85;29.17;99035.88;5037723;28;864;-73
2022/11/11 10:48:52;;;;;;;;;;;;;;;20.38;29.80;99043.81;5024060;28;971;-73
2022/11/11 10:51:37;;;;;;;;;;;;;;;20.47;29.74;99038.53;5036454;28;1119;-73
2022/11/11 10:54:30;;;;;;;;;;;;;;;20.97;28.96;99029.72;5022286;28;680;-73
2022/11/11 10:57:17;;;;;;;;;;;;;;;20.96;28.82;99028.09;5036151;28;1149;-74
2022/11/11 11:00:05;;;;;;;;;;;;;;;20.63;29.24;99026.72;5036168;28;725;-74
2022/11/11 11:03:06;;;;;;;;;;;;;;;20.68;29.49;99018.63;5035942;28;985;-74
2022/11/11 11:05:58;;;;;;;;;;;;;;;20.72;29.59;99018.56;5036021;28;754;-74
2022/11/11 11:08:44;;;;;;;;;;;;;;;20.89;28.93;99002.72;5022006;28;994;-73
2022/11/11 11:11:33;;;;;;;;;;;;;;;21.19;28.70;99013.34;5035996;28;820;-74
2022/11/11 11:14:33;;;;;;;;;;;;;;;20.99;28.90;98999.78;5035898;28;1033;-74
2022/11/11 11:17:21;;;;;;;;;;;;;;;20.59;29.11;98998.47;5008082;28;835;-72
2022/11/11 11:20:06;;;;;;;;;;;;;;;20.64;29.56;99009.34;5021811;28;840;-73
2022/11/11 11:22:51;;;;;;;;;;;;;;;20.86;28.98;99000.69;5035704;28;905;-72
2022/11/11 11:25:35;;;;;;;;;;;;;;;20.93;28.97;99009.13;5008029;28;966;-72
2022/11/11 11:28:20;;;;;;;;;;;;;;;21.07;28.99;99003.34;5021672;28;991;-72
2022/11/11 11:31:04;;;;;;;;;;;;;;;20.83;29.15;99004.34;5035682;28;922;-72
2022/11/11 11:33:49;;;;;;;;;;;;;;;20.60;29.31;99011.38;5034404;28;1036;-72
2022/11/11 11:36:33;;;;;;;;;;;;;;;20.55;29.26;99012.63;5049596;28;1094;-72
2022/11/11 11:39:30;;;;;;;;;;;;;;;20.64;29.58;99015.00;5035862;28;1902;-72
2022/11/11 11:42:26;;;;;;;;;;;;;;;21.20;28.35;99021.44;5036904;28;923;-72
2022/11/11 11:45:14;;;;;;;;;;;;;;;20.83;28.99;99024.16;5037733;28;938;-72
2022/11/11 11:48:24;;;;;;;;;;;;;;;20.60;29.36;99025.53;5037709;28;902;-72
2022/11/11 11:51:20;;;;;;;;;;;;;;;20.57;29.51;99028.38;5036578;28;931;-72
2022/11/11 11:54:10;;;;;;;;;;;;;;;20.96;28.84;99022.44;5037578;28;864;-72
2022/11/11 11:56:55;;;;;;;;;;;;;;;21.00;28.84;99017.56;5037519;28;876;-72
2022/11/11 11:59:45;;;;;;;;;;;;;;;20.53;29.14;99025.56;5036391;28;2047;-72
2022/11/11 12:02:35;;;;;;;;;;;;;;;20.65;28.89;99025.09;5036474;28;882;-72
2022/11/11 12:05:38;;;;;;;;;;;;;;;20.43;29.53;99023.59;5037376;28;931;-72
2022/11/11 12:08:34;;;;;;;;;;;;;;;20.71;29.32;99023.44;5037323;28;1013;-72
2022/11/11 12:11:33;;;;;;;;;;;;;;;20.99;28.75;99024.47;5037197;28;943;-72
2022/11/11 12:14:26;;;;;;;;;;;;;;;20.87;28.49;99025.72;5037234;28;890;-72
2022/11/11 12:17:28;;;;;;;;;;;;;;;20.54;29.22;99035.66;5054857;28;924;-72
2022/11/11 12:20:17;;;;;;;;;;;;;;;20.52;29.75;99032.44;5054508;28;889;-75
2022/11/11 12:23:13;;;;;;;;;;;;;;;21.34;28.76;99031.84;5054541;28;1013;-71
2022/11/11 12:26:02;;;;;;;;;;;;;;;21.12;28.98;99036.88;5054749;28;959;-71
2022/11/11 12:28:55;;;;;;;;;;;;;;;21.29;28.83;99035.09;5054448;28;977;-71
2022/11/11 12:31:43;;;;;;;;;;;;;;;21.04;29.67;99030.47;5054347;28;925;-71
2022/11/11 12:34:33;;;;;;;;;;;;;;;21.14;29.57;99034.44;5054382;28;1055;-71
2022/11/11 12:37:28;;;;;;;;;;;;;;;21.20;29.97;99029.94;5054232;28;1089;-71
2022/11/11 12:40:21;;;;;;;;;;;;;;;21.41;29.61;99033.81;5059592;28;1519;-70
2022/11/11 12:43:12;;;;;;;;;;;;;;;21.22;30.42;99030.31;5071776;28;1338;-70
2022/11/11 12:45:56;;;;;;;;;;;;;;;21.09;30.56;99026.41;5087596;28;1278;-73
2022/11/11 12:48:46;;;;;;;;;;;;;;;21.13;30.88;99032.81;5059563;28;1014;-71
2022/11/11 12:51:59;;;;;;;;;;;;;;;21.25;30.61;99026.66;5056483;28;936;-73
2022/11/11 12:54:58;;;;;;;;;;;;;;;21.33;30.38;99030.25;5073938;28;956;-73
2022/11/11 12:57:51;;;;;;;;;;;;;;;20.95;31.10;99026.50;5073763;28;1921;-72
2022/11/11 13:00:39;;;;;;;;;;;;;;;21.50;30.19;99031.28;5059723;28;931;-72
2022/11/11 13:03:27;;;;;;;;;;;;;;;21.21;30.73;99028.72;5073844;28;969;-72
2022/11/11 13:06:29;;;;;;;;;;;;;;;21.25;30.62;99026.66;5073665;28;963;-72
2022/11/11 13:09:19;;;;;;;;;;;;;;;21.01;31.62;99036.16;5073706;28;1040;-72
2022/11/11 13:12:14;;;;;;;;;;;;;;;20.97;31.84;99032.53;5073515;28;1009;-72
2022/11/11 13:15:17;;;;;;;;;;;;;;;21.12;31.69;99034.03;5073626;28;1018;-72
2022/11/11 13:18:01;;;;;;;;;;;;;;;21.05;31.78;99036.94;5073571;28;1897;-72
2022/11/11 13:20:47;;;;;;;;;;;;;;;21.23;31.43;99031.91;5073553;28;964;-70
2022/11/11 13:23:31;;;;;;;;;;;;;;;21.27;31.42;99027.03;5073310;28;1059;-70
2022/11/11 13:26:22;;;;;;;;;;;;;;;21.03;31.40;99028.84;5073453;28;1021;-70
2022/11/11 13:29:13;;;;;;;;;;;;;;;21.54;30.53;99034.91;5073281;28;1099;-70
2022/11/11 13:31:57;;;;;;;;;;;;;;;21.19;31.28;99036.81;5055695;28;945;-70
2022/11/11 13:34:41;;;;;;;;;;;;;;;21.33;30.84;99041.56;5083276;28;940;-70
2022/11/11 13:37:29;;;;;;;;;;;;;;;21.11;31.56;99038.09;5055481;28;1048;-73
2022/11/11 13:40:32;;;;;;;;;;;;;;;21.44;30.73;99039.44;5055848;28;964;-70
2022/11/11 13:43:20;;;;;;;;;;;;;;;21.01;31.28;99041.81;5055597;28;938;-75
2022/11/11 13:46:04;;;;;;;;;;;;;;;20.57;31.95;99054.63;5054594;28;926;-75
2022/11/11 13:48:48;;;;;;;;;;;;;;;20.48;31.61;99055.09;5055370;28;951;-75
2022/11/11 13:51:35;;;;;;;;;;;;;;;20.42;31.60;99044.59;5055468;28;923;-75
2022/11/11 13:54:20;;;;;;;;;;;;;;;20.64;31.08;99048.94;5055607;28;734;-75
2022/11/11 13:57:08;;;;;;;;;;;;;;;20.70;31.14;99054.97;5067969;28;814;-75
2022/11/11 13:59:55;;;;;;;;;;;;;;;20.90;31.13;99069.38;5082605;28;1890;-76
2022/11/11 14:02:39;;;;;;;;;;;;;;;20.90;30.98;99060.91;5068207;28;786;-75
2022/11/11 14:05:25;;;;;;;;;;;;;;;20.98;30.74;99059.59;5082717;28;890;-75
2022/11/11 14:08:09;;;;;;;;;;;;;;;20.55;31.53;99062.72;5055262;28;732;-75
2022/11/11 14:10:54;;;;;;;;;;;;;;;20.61;30.95;99058.22;5082867;28;888;-75
2022/11/11 14:13:39;;;;;;;;;;;;;;;20.76;30.67;99059.75;5055353;28;890;-75
2022/11/11 14:16:33;;;;;;;;;;;;;;;21.04;30.07;99055.13;5068285;28;945;-76
2022/11/11 14:19:19;;;;;;;;;;;;;;;21.23;29.79;99059.41;5055099;28;1902;-75
2022/11/11 14:22:22;;;;;;;;;;;;;;;20.81;30.06;99061.34;5055341;28;977;-75
2022/11/11 14:25:25;;;;;;;;;;;;;;;20.50;30.44;99069.59;5054994;28;984;-75
2022/11/11 14:28:22;;;;;;;;;;;;;;;19.73;30.13;98922.59;5055015;28;862;-75
2022/11/11 14:31:12;;;;;;;;;;;;;;;21.10;29.70;99061.97;5055177;28;914;-75
2022/11/11 14:34:07;;;;;;;;;;;;;;;21.01;29.88;99061.63;5055043;28;865;-75
2022/11/11 14:36:51;;;;;;;;;;;;;;;20.59;30.13;99057.03;5082433;28;1040;-75
2022/11/11 14:39:41;;;;;;;;;;;;;;;20.75;29.70;99063.81;5054763;28;1977;-75
2022/11/11 14:42:34;;;;;;;;;;;;;;;20.69;29.55;99062.63;5082556;28;941;-75
2022/11/11 14:45:22;;;;;;;;;;;;;;;20.93;29.91;99071.34;5055319;28;1017;-74
2022/11/11 14:48:25;;;;;;;;;;;;;;;20.72;30.12;99064.63;5054864;28;817;-75
2022/11/11 14:51:36;;;;;;;;;;;;;;;21.09;29.67;99054.69;5055010;28;888;-75
2022/11/11 14:54:40;;;;;;;;;;;;;;;20.60;30.03;99067.94;5058334;28;1067;-75
2022/11/11 14:57:25;;;;;;;;;;;;;;;20.41;30.08;99071.22;5032466;28;1103;-75
2022/11/11 15:00:15;;;;;;;;;;;;;;;20.66;30.25;99071.13;5018622;28;923;-75
2022/11/11 15:03:00;;;;;;;;;;;;;;;20.93;29.43;99074.19;5032232;28;1033;-75
2022/11/11 15:05:50;;;;;;;;;;;;;;;20.97;29.41;99064.47;5012555;28;1016;-75
2022/11/11 15:08:39;;;;;;;;;;;;;;;20.63;29.70;99072.78;5014514;28;901;-75
2022/11/11 15:11:52;;;;;;;;;;;;;;;20.78;29.56;99071.47;4976926;28;1003;-75
2022/11/11 15:14:41;;;;;;;;;;;;;;;20.70;29.56;99072.72;4919611;29;987;-75
2022/11/11 15:17:44;;;;;;;;;;;;;;;20.49;30.74;99067.19;4919394;29;1029;-75
2022/11/11 15:20:39;;;;;;;;;;;;;;;20.97;29.35;99070.13;4906102;29;1029;-75
2022/11/11 15:23:23;;;;;;;;;;;;;;;20.92;29.54;99079.03;4905945;29;956;-75
2022/11/11 15:26:24;;;;;;;;;;;;;;;20.63;29.91;99072.78;4919435;29;920;-75
2022/11/11 15:29:08;;;;;;;;;;;;;;;20.44;30.06;99076.06;4919368;29;1013;-75
2022/11/11 15:32:02;;;;;;;;;;;;;;;20.58;29.81;99073.22;4868508;29;966;-75
2022/11/11 15:35:03;;;;;;;;;;;;;;;20.90;29.41;99077.88;4893412;29;1150;-75
2022/11/11 15:37:50;;;;;;;;;;;;;;;20.85;29.60;99086.78;4905894;29;1911;-75
2022/11/11 15:40:42;;;;;;;;;;;;;;;21.03;29.23;99076.13;4905829;29;964;-75
2022/11/11 15:43:27;;;;;;;;;;;;;;;20.64;29.78;99085.69;4965528;28;1027;-75
2022/11/11 15:46:12;;;;;;;;;;;;;;;20.73;29.46;99080.41;4990440;28;1074;-75
2022/11/11 15:48:56;;;;;;;;;;;;;;;20.72;30.00;99086.44;4990429;28;1013;-75
2022/11/11 15:51:41;;;;;;;;;;;;;;;20.96;29.43;99096.00;5073229;28;1017;-75
2022/11/11 15:54:25;;;;;;;;;;;;;;;21.19;29.09;99090.59;5057670;28;1046;-75
2022/11/11 15:57:28;;;;;;;;;;;;;;;20.70;29.70;99095.34;5057507;28;1138;-75
2022/11/11 16:00:24;;;;;;;;;;;;;;;20.55;29.94;99105.13;5084796;28;832;-74
2022/11/11 16:03:17;;;;;;;;;;;;;;;20.71;29.84;99108.28;5057414;28;991;-75
2022/11/11 16:06:02;;;;;;;;;;;;;;;21.07;29.04;99113.72;5084926;28;965;-75
2022/11/11 16:08:48;;;;;;;;;;;;;;;20.86;29.60;99102.53;5057186;28;938;-75
2022/11/11 16:11:32;;;;;;;;;;;;;;;20.57;29.76;99114.00;5094985;28;1076;-75